Meteo Giornale » Osservazioni meteo Stati Uniti (USA) » Elko
ore: 13:56 - Osservazioni Meteo Elko
Lat. 40° 49' N Lon. 115° 47' W Alt. 1568 metri s.l.m.
30 °C
Sereno
Temp. 24 Ore
5 °C
30 °C
Est/Sud-Est
11.1 Km/h
Dew point -1 °C
Umidità 13 %
Visibilità 10 Km
Il sole sorge alle ore 06:09
Il sole tramonta alle ore 19:17
| Data e Ora | Cielo e Fenomeni | T °C | DP °C | Um. % | Pres. hPa | Vis. km | Vento km/h | |
|---|---|---|---|---|---|---|---|---|
| Oggi h: 13:56 | Sereno | 30 | -1 | 13 | 1015 | 10 | E/SE 11.1 | |
| Oggi h: 12:56 | Sereno | 27 | 0 | 17 | 1016 | 10 | S/SE 13 | |
| Oggi h: 11:56 | Sereno | 25 | -1 | 17 | 1017 | 10 | N 0 | |
| Oggi h: 10:56 | Sereno | 23 | -1 | 20 | 1018 | 10 | N 5.5 | |
| Oggi h: 09:56 | Sereno | 19 | -2 | 24 | 1018 | 10 | N 5.5 | |
| Oggi h: 08:56 | Sereno | 16 | -3 | 26 | 1019 | 10 | N 5.5 | |
| Oggi h: 07:56 | Sereno | 12 | -3 | 34 | 1019 | 10 | E 11.1 | |
| Oggi h: 06:56 | Sereno | 9 | -4 | 39 | 1019 | 10 | E/NE 7.4 | |
| Oggi h: 05:56 | Sereno | 5 | -5 | 48 | 1019 | 10 | N 0 | |
| Oggi h: 04:56 | Sereno | 7 | -4 | 45 | 1018 | 10 | N 5.5 | |
| Oggi h: 03:56 | Sereno | 9 | -6 | 33 | 1018 | 10 | N 0 | |
| Oggi h: 02:56 | Sereno | 8 | -6 | 36 | 1018 | 10 | N 0 | |
| Oggi h: 01:56 | Sereno | 9 | -6 | 33 | 1018 | 10 | N 0 | |
| Oggi h: 00:56 | Sereno | 9 | -4 | 39 | 1018 | 10 | N 5.5 | |
| Ieri h: 23:56 | Sereno | 14 | -6 | 24 | 1018 | 10 | N 0 | |
| Ieri h: 22:56 | Sereno | 17 | -5 | 21 | 1018 | 10 | N 5.5 | |
| Ieri h: 21:56 | Sereno | 16 | -7 | 19 | 1018 | 10 | E/NE 9.3 | |
| Ieri h: 20:56 | Sereno | 19 | -7 | 16 | 1018 | 10 | E/NE 9.3 | |
| Ieri h: 19:56 | Sereno | 21 | -7 | 14 | 1017 | 10 | N/NO 13 | |
| Ieri h: 18:56 | Sereno | 25 | -8 | 10 | 1017 | 10 | O/NO 11.1 | |
| Ieri h: 17:56 | Sereno | 27 | -8 | 9 | 1017 | 10 | O/SO 16.7 | |
| Ieri h: 16:56 | Sereno | 27 | -7 | 10 | 1017 | 10 | O/NO 11.1 | |
| Ieri h: 15:56 | Sereno | 28 | -7 | 9 | 1017 | 10 | S/SO 20.3 | |
| Ieri h: 14:56 | Sereno | 27 | -5 | 11 | 1018 | 10 | O 14.8 | |



